CYLW/YLW METAR and TAF weather

Enter ICAO airport designator
Station Type Date Time Source
CYLW METAR 2019/04/26 04:00 UTC NOAA

CYLW 260400Z AUTO 05003KT 350V060 9SM FEW120 11/00 A3000 RMK SLP169


Station Type Date Time Source
CYLW Decoded METAR 2019/04/26 04:00 UTC NOAA

Kelowna Airport, Canada (CYLW) 49-58N 119-23W 430M
Apr 26, 2019 - 12:00 AM EDT / 2019.04.26 0400 UTC
Wind: from the NE (050 degrees) at 3 MPH (3 KT) (direction variable):0
Visibility: 9 mile(s):0
Sky conditions: mostly clear
Temperature: 51 F (11 C)
Dew Point: 32 F (0 C)
Relative Humidity: 46%
Pressure (altimeter): 30 in. Hg (1015 hPa)
ob: CYLW 260400Z AUTO 05003KT 350V060 9SM FEW120 11/00 A3000 RMK SLP169
cycle: 4

Station Type Date Time Source
CYLW TAF 2019/04/26 01:39 UTC NOAA

TAF TAF CYLW 260038Z 2601/2613 34006KT P6SM BKN180
FM260600 03005KT P6SM BKN100
RMK FCST BASED ON AUTO OBS. NXT FCST BY 260700Z

Example: see airport list